createdAt,value
2022-11-18T00:02:01.356Z,13.50
2022-11-18T00:04:31.796Z,13.60
2022-11-18T00:06:59.897Z,13.80
2022-11-18T00:09:30.722Z,13.90
2022-11-18T00:12:16.051Z,14.00
2022-11-18T00:14:44.436Z,14.10
2022-11-18T00:17:14.933Z,14.20
2022-11-18T00:19:44.285Z,14.10
2022-11-18T00:22:15.053Z,13.50
2022-11-18T00:24:45.480Z,13.40
2022-11-18T00:27:13.889Z,13.40
2022-11-18T00:29:42.622Z,13.30
2022-11-18T00:32:10.774Z,13.30
2022-11-18T00:34:39.432Z,13.30
2022-11-18T00:37:12.267Z,13.30
2022-11-18T00:39:40.609Z,13.30
2022-11-18T00:42:26.559Z,13.40
2022-11-18T00:44:55.038Z,13.40
2022-11-18T00:47:26.121Z,13.40
2022-11-18T00:49:58.904Z,13.60
2022-11-18T00:52:30.843Z,13.70
2022-11-18T00:54:59.561Z,13.60
2022-11-18T00:57:27.528Z,13.40
2022-11-18T00:59:55.967Z,13.70
2022-11-18T01:02:24.873Z,13.00
2022-11-18T01:04:53.112Z,13.10
2022-11-18T01:07:21.182Z,13.00
2022-11-18T01:09:51.412Z,12.90
2022-11-18T01:12:37.763Z,13.30
2022-11-18T01:15:07.282Z,13.50
2022-11-18T01:17:35.280Z,13.80
2022-11-18T01:20:03.872Z,14.00
2022-11-18T01:22:32.309Z,14.10
2022-11-18T01:25:02.116Z,14.20
2022-11-18T01:27:32.550Z,14.30
2022-11-18T01:30:02.868Z,14.40
2022-11-18T01:32:34.062Z,14.30
2022-11-18T01:35:02.570Z,14.50
2022-11-18T01:37:32.457Z,14.40
2022-11-18T01:40:02.786Z,14.60
2022-11-18T01:42:30.947Z,14.60
2022-11-18T01:45:16.991Z,14.60
2022-11-18T01:47:50.895Z,14.60
2022-11-18T01:50:21.165Z,14.30
2022-11-18T01:52:53.545Z,14.20
2022-11-18T01:55:26.727Z,14.10
2022-11-18T01:58:05.564Z,14.10
2022-11-18T02:00:33.638Z,13.90
2022-11-18T02:03:03.848Z,13.80
2022-11-18T02:05:34.772Z,13.90
2022-11-18T02:08:04.352Z,13.70
2022-11-18T02:10:43.886Z,13.40
2022-11-18T02:13:14.192Z,13.30
2022-11-18T02:15:50.774Z,13.30
2022-11-18T02:18:30.061Z,13.40
2022-11-18T02:21:09.393Z,13.10
2022-11-18T02:24:11.221Z,13.20
2022-11-18T02:27:13.335Z,13.00
2022-11-18T02:29:47.353Z,12.90
2022-11-18T02:32:23.634Z,12.60
2022-11-18T02:34:57.680Z,12.90
2022-11-18T02:37:32.273Z,12.70
2022-11-18T02:40:09.138Z,12.80
2022-11-18T02:42:38.753Z,12.90
2022-11-18T02:45:19.796Z,12.90
2022-11-18T02:47:51.144Z,13.00
2022-11-18T02:50:24.930Z,12.80
2022-11-18T02:52:59.343Z,13.10
2022-11-18T02:55:33.266Z,13.40
2022-11-18T02:58:04.119Z,13.60
2022-11-18T03:00:37.520Z,13.70
2022-11-18T03:03:27.082Z,13.80
2022-11-18T03:06:04.313Z,14.00
2022-11-18T03:08:39.286Z,13.90
2022-11-18T03:11:13.899Z,13.90
2022-11-18T03:13:51.421Z,13.90
2022-11-18T03:16:26.772Z,14.00
2022-11-18T03:19:04.602Z,14.10
2022-11-18T03:21:38.807Z,14.00
2022-11-18T03:24:15.358Z,14.10
2022-11-18T03:26:57.442Z,13.80
2022-11-18T03:29:31.646Z,13.90
2022-11-18T03:32:06.824Z,14.00
2022-11-18T03:34:39.211Z,14.10
2022-11-18T03:37:16.300Z,14.10
2022-11-18T03:39:50.039Z,14.20
2022-11-18T03:42:25.850Z,14.20
2022-11-18T03:44:57.185Z,14.10
2022-11-18T03:47:31.570Z,14.20
2022-11-18T03:50:09.533Z,14.20
2022-11-18T03:52:41.549Z,14.20
2022-11-18T03:55:14.752Z,14.10
2022-11-18T03:57:55.264Z,14.10
2022-11-18T04:00:31.626Z,14.30
2022-11-18T04:03:04.946Z,14.10
2022-11-18T04:05:37.301Z,14.20
2022-11-18T04:08:18.335Z,14.20
2022-11-18T04:10:50.924Z,14.20
2022-11-18T04:13:24.835Z,14.20
2022-11-18T04:15:54.914Z,14.30
2022-11-18T04:18:25.406Z,14.20
2022-11-18T04:20:56.240Z,14.30
2022-11-18T04:23:33.417Z,14.30
2022-11-18T04:26:02.497Z,14.40
2022-11-18T04:28:30.469Z,14.20
2022-11-18T04:30:58.610Z,14.00
2022-11-18T04:33:28.337Z,14.00
2022-11-18T04:35:59.640Z,13.80
2022-11-18T04:38:30.799Z,13.80
2022-11-18T04:40:59.603Z,13.80
2022-11-18T04:43:27.958Z,13.60
2022-11-18T04:45:56.410Z,13.40
2022-11-18T04:48:29.350Z,13.50
2022-11-18T04:50:59.047Z,13.40
2022-11-18T04:53:27.214Z,13.20
2022-11-18T04:55:57.296Z,13.30
2022-11-18T04:58:26.216Z,13.30
2022-11-18T05:00:56.475Z,13.30
2022-11-18T05:03:24.929Z,13.20
2022-11-18T05:08:39.732Z,13.10
2022-11-18T05:11:22.434Z,13.00
2022-11-18T05:13:52.064Z,13.00
2022-11-18T05:16:20.044Z,12.80
2022-11-18T05:18:48.558Z,12.80
2022-11-18T05:21:20.464Z,12.70
2022-11-18T05:23:49.298Z,12.70
2022-11-18T05:26:20.578Z,12.90
2022-11-18T05:28:49.414Z,13.10
2022-11-18T05:31:19.167Z,13.10
2022-11-18T05:33:57.280Z,13.20
2022-11-18T05:36:27.227Z,13.00
2022-11-18T05:38:57.826Z,12.90
2022-11-18T05:41:44.039Z,12.90
2022-11-18T05:44:14.082Z,12.80
2022-11-18T05:46:42.675Z,12.90
2022-11-18T05:49:11.614Z,12.70
2022-11-18T05:51:40.948Z,12.80
2022-11-18T05:54:11.256Z,12.90
2022-11-18T05:56:41.610Z,13.00
2022-11-18T05:59:09.792Z,13.20
2022-11-18T06:01:43.030Z,13.20
2022-11-18T06:04:18.176Z,13.10
2022-11-18T06:06:53.938Z,13.20
2022-11-18T06:09:26.717Z,13.30
2022-11-18T06:11:58.818Z,13.30
2022-11-18T06:14:32.942Z,13.50
2022-11-18T06:17:08.006Z,13.50
2022-11-18T06:19:36.897Z,13.50
2022-11-18T06:22:06.832Z,13.40
2022-11-18T06:24:35.648Z,13.60
2022-11-18T06:27:05.026Z,13.70
2022-11-18T06:29:33.316Z,13.80
2022-11-18T06:32:01.290Z,13.70
2022-11-18T06:34:38.204Z,13.80
2022-11-18T06:37:18.113Z,13.90
2022-11-18T06:39:46.719Z,13.90
2022-11-18T06:42:35.216Z,14.00
2022-11-18T06:45:02.669Z,13.90
2022-11-18T06:47:31.161Z,13.90
2022-11-18T06:49:59.892Z,13.80
2022-11-18T06:52:29.361Z,13.70
2022-11-18T06:54:57.703Z,13.70
2022-11-18T06:57:25.678Z,13.60
2022-11-18T06:59:57.701Z,13.50
2022-11-18T07:02:30.909Z,13.40
2022-11-18T07:05:01.610Z,13.50
2022-11-18T07:07:37.541Z,13.50
2022-11-18T07:10:09.927Z,13.50
2022-11-18T07:12:45.194Z,13.60
2022-11-18T07:15:13.842Z,13.70
2022-11-18T07:17:41.912Z,13.70
2022-11-18T07:20:11.032Z,13.80
2022-11-18T07:22:40.485Z,13.80
2022-11-18T07:25:08.984Z,13.60
2022-11-18T07:27:38.279Z,13.50
2022-11-18T07:30:07.338Z,13.30
2022-11-18T07:32:35.394Z,13.30
2022-11-18T07:35:03.789Z,13.30
2022-11-18T07:37:31.877Z,13.30
2022-11-18T07:40:03.285Z,13.20
2022-11-18T07:42:42.931Z,13.10
2022-11-18T07:45:26.342Z,13.00
2022-11-18T07:47:54.683Z,13.10
2022-11-18T07:50:23.112Z,13.10
2022-11-18T07:52:51.513Z,13.20
2022-11-18T07:55:25.787Z,13.10
2022-11-18T07:57:57.243Z,13.00
2022-11-18T08:00:25.421Z,13.20
2022-11-18T08:02:53.572Z,13.00
2022-11-18T08:05:21.658Z,13.00
2022-11-18T08:07:59.480Z,13.00
2022-11-18T08:10:31.509Z,13.10
2022-11-18T08:13:02.323Z,13.30
2022-11-18T08:15:36.546Z,13.40
2022-11-18T08:18:08.491Z,13.50
2022-11-18T08:20:40.790Z,13.60
2022-11-18T08:23:11.249Z,13.60
2022-11-18T08:25:40.750Z,13.70
2022-11-18T08:28:09.647Z,13.90
2022-11-18T08:30:38.730Z,13.80
2022-11-18T08:33:09.267Z,13.80
2022-11-18T08:35:37.733Z,13.90
2022-11-18T08:38:07.802Z,13.80
2022-11-18T08:40:35.870Z,13.70
2022-11-18T08:43:06.124Z,13.80
2022-11-18T08:45:38.145Z,13.80
2022-11-18T08:48:07.153Z,13.80
2022-11-18T08:50:35.452Z,13.80
2022-11-18T08:53:05.638Z,13.30
2022-11-18T08:55:34.275Z,13.40
2022-11-18T08:58:02.761Z,13.30
2022-11-18T09:00:32.598Z,13.50
2022-11-18T09:03:01.497Z,13.50
2022-11-18T09:05:29.487Z,13.60
2022-11-18T09:07:57.937Z,13.70
2022-11-18T09:10:26.520Z,13.70
2022-11-18T09:12:54.855Z,13.80
2022-11-18T09:15:24.064Z,14.10
2022-11-18T09:20:43.505Z,14.10
2022-11-18T09:23:11.901Z,14.20
2022-11-18T09:25:40.121Z,14.20
2022-11-18T09:28:08.114Z,14.10
2022-11-18T09:30:39.424Z,14.10
2022-11-18T09:33:08.975Z,14.20
2022-11-18T09:35:42.909Z,14.10
2022-11-18T09:38:11.107Z,14.00
2022-11-18T09:40:49.794Z,13.90
2022-11-18T09:43:26.320Z,13.60
2022-11-18T09:46:03.111Z,13.40
2022-11-18T09:48:46.632Z,13.10
2022-11-18T09:51:15.586Z,12.80
2022-11-18T09:53:53.121Z,13.00
2022-11-18T09:56:22.848Z,13.00
2022-11-18T09:58:51.749Z,12.90
2022-11-18T10:01:21.902Z,13.10
2022-11-18T10:03:53.917Z,13.20
2022-11-18T10:06:27.326Z,13.40
2022-11-18T10:09:08.057Z,13.50
2022-11-18T10:11:42.745Z,13.70
2022-11-18T10:14:30.951Z,13.50
2022-11-18T10:17:08.331Z,13.50
2022-11-18T10:19:46.384Z,13.30
2022-11-18T10:22:25.110Z,13.30
2022-11-18T10:24:55.511Z,13.30
2022-11-18T10:27:25.489Z,13.30
2022-11-18T10:29:57.070Z,13.50
2022-11-18T10:32:26.933Z,13.40
2022-11-18T10:34:58.589Z,13.40
2022-11-18T10:37:52.531Z,13.40
2022-11-18T10:40:27.416Z,13.50
2022-11-18T10:42:56.400Z,13.70
2022-11-18T10:45:28.371Z,13.60
2022-11-18T10:48:04.197Z,13.60
2022-11-18T10:50:36.646Z,13.30
2022-11-18T10:53:06.768Z,13.20
2022-11-18T10:55:35.544Z,13.30
2022-11-18T10:58:09.222Z,13.40
2022-11-18T11:00:44.077Z,13.50
2022-11-18T11:03:36.201Z,13.70
2022-11-18T11:06:36.509Z,13.90
2022-11-18T11:09:10.698Z,14.10
2022-11-18T11:11:45.469Z,13.80
2022-11-18T11:14:21.277Z,13.80
2022-11-18T11:17:02.730Z,13.80
2022-11-18T11:19:45.688Z,13.70
2022-11-18T11:22:18.161Z,13.90
2022-11-18T11:24:47.198Z,14.70
2022-11-18T11:30:45.280Z,16.60
2022-11-18T11:33:31.959Z,17.10
2022-11-18T11:36:14.922Z,17.40
2022-11-18T11:39:04.925Z,17.40
2022-11-18T11:41:44.282Z,17.30
2022-11-18T11:44:37.188Z,17.00
2022-11-18T11:47:35.740Z,16.60
2022-11-18T11:50:14.851Z,16.60
2022-11-18T11:52:51.199Z,16.00
2022-11-18T11:55:29.407Z,15.50
2022-11-18T11:58:25.379Z,15.30
2022-11-18T12:01:06.681Z,15.50
2022-11-18T12:03:51.631Z,15.00
2022-11-18T12:06:21.037Z,14.80
2022-11-18T12:09:03.992Z,14.40
2022-11-18T12:11:41.999Z,14.60
2022-11-18T12:14:18.205Z,14.30
2022-11-18T12:16:50.964Z,14.90
2022-11-18T12:19:24.834Z,16.00
2022-11-18T12:22:06.994Z,17.10
2022-11-18T12:24:38.164Z,18.20
2022-11-18T12:27:13.990Z,18.80
2022-11-18T12:29:54.324Z,19.90
2022-11-18T12:32:36.109Z,20.40
2022-11-18T12:35:22.322Z,21.60
2022-11-18T12:38:06.620Z,21.90
2022-11-18T12:40:52.525Z,21.70
2022-11-18T12:44:06.122Z,20.90
2022-11-18T12:46:53.789Z,20.60
2022-11-18T12:49:55.347Z,20.20
2022-11-18T12:53:02.752Z,19.10
2022-11-18T12:55:33.885Z,18.40
2022-11-18T12:58:02.726Z,17.80
2022-11-18T13:00:54.225Z,17.40
2022-11-18T13:03:30.973Z,17.20
2022-11-18T13:06:03.091Z,17.20
2022-11-18T13:08:34.655Z,16.80
2022-11-18T13:11:34.079Z,16.70
2022-11-18T13:14:25.186Z,16.00
2022-11-18T13:17:07.131Z,16.00
2022-11-18T13:19:39.630Z,15.90
2022-11-18T13:22:36.147Z,15.70
2022-11-18T13:25:04.360Z,15.80
2022-11-18T13:27:45.141Z,15.50
2022-11-18T13:30:17.694Z,15.10
2022-11-18T13:32:47.837Z,15.20
2022-11-18T13:35:19.863Z,15.30
2022-11-18T13:37:55.861Z,15.40
2022-11-18T13:40:29.624Z,15.60
2022-11-18T13:42:58.121Z,15.40
2022-11-18T13:45:31.523Z,15.40
2022-11-18T13:48:06.465Z,15.40
2022-11-18T13:50:39.204Z,15.40
2022-11-18T13:53:18.938Z,15.20
2022-11-18T13:55:52.380Z,15.10
2022-11-18T13:58:40.076Z,15.10
2022-11-18T14:01:20.193Z,14.90
2022-11-18T14:03:51.979Z,15.00
2022-11-18T14:06:29.711Z,15.00
2022-11-18T14:09:25.843Z,14.70
2022-11-18T14:12:02.950Z,14.70
2022-11-18T14:14:36.258Z,15.10
2022-11-18T14:17:16.180Z,15.20
2022-11-18T14:19:46.008Z,15.10
2022-11-18T14:22:18.808Z,15.00
2022-11-18T14:24:56.308Z,15.10
2022-11-18T14:27:41.928Z,15.30
2022-11-18T14:30:56.121Z,15.20
2022-11-18T14:33:25.838Z,15.10
2022-11-18T14:35:57.952Z,15.30
2022-11-18T14:38:44.136Z,15.50
2022-11-18T14:41:44.407Z,15.60
2022-11-18T14:44:13.999Z,15.40
2022-11-18T14:46:46.676Z,15.40
2022-11-18T14:49:18.953Z,15.40
2022-11-18T14:51:50.568Z,15.60
2022-11-18T14:54:26.740Z,15.60
2022-11-18T14:56:58.192Z,15.50
2022-11-18T14:59:26.239Z,15.60
2022-11-18T15:01:54.656Z,15.60
2022-11-18T15:04:26.658Z,15.70
2022-11-18T15:06:55.054Z,15.50
2022-11-18T15:09:27.406Z,15.60
2022-11-18T15:11:58.823Z,15.70
2022-11-18T15:14:27.800Z,15.50
2022-11-18T15:16:55.835Z,15.50
2022-11-18T15:19:23.843Z,15.60
2022-11-18T15:21:51.811Z,15.50
2022-11-18T15:24:20.367Z,15.50
2022-11-18T15:26:52.509Z,15.60
2022-11-18T15:29:23.226Z,15.40
2022-11-18T15:31:52.173Z,15.20
2022-11-18T15:34:21.911Z,15.10
2022-11-18T15:36:50.742Z,15.20
2022-11-18T15:39:21.228Z,15.10
2022-11-18T15:41:50.949Z,15.00
2022-11-18T15:44:21.890Z,14.90
2022-11-18T15:46:52.413Z,14.90
2022-11-18T15:49:21.413Z,14.90
2022-11-18T15:51:49.707Z,15.00
2022-11-18T15:54:18.409Z,14.90
2022-11-18T15:56:47.049Z,14.90
2022-11-18T15:59:19.623Z,14.70
2022-11-18T16:01:49.708Z,14.70
2022-11-18T16:04:20.027Z,14.80
2022-11-18T16:06:49.526Z,14.80
2022-11-18T16:09:19.223Z,14.80
2022-11-18T16:12:05.214Z,14.90
2022-11-18T16:15:05.806Z,14.90
2022-11-18T16:17:34.645Z,14.90
2022-11-18T16:20:09.801Z,15.00
2022-11-18T16:22:38.565Z,14.90
2022-11-18T16:25:07.274Z,14.90
2022-11-18T16:27:36.461Z,14.70
2022-11-18T16:30:06.623Z,14.50
2022-11-18T16:32:34.639Z,14.60
2022-11-18T16:35:04.677Z,14.40
2022-11-18T16:37:33.469Z,14.30
2022-11-18T16:40:01.423Z,14.20
2022-11-18T16:42:29.489Z,14.10
2022-11-18T16:45:05.244Z,13.80
2022-11-18T16:47:38.346Z,14.00
2022-11-18T16:50:07.312Z,14.20
2022-11-18T16:52:35.289Z,14.20
2022-11-18T16:55:03.917Z,14.10
2022-11-18T16:57:32.550Z,14.00
2022-11-18T17:00:03.078Z,13.90
2022-11-18T17:02:31.703Z,14.00
2022-11-18T17:05:01.075Z,14.00
2022-11-18T17:07:32.632Z,14.10
2022-11-18T17:10:07.188Z,14.10
2022-11-18T17:12:35.507Z,14.30
2022-11-18T17:15:04.042Z,14.40
2022-11-18T17:17:32.927Z,14.40
2022-11-18T17:20:04.540Z,14.50
2022-11-18T17:22:34.510Z,14.50
2022-11-18T17:25:05.533Z,14.60
2022-11-18T17:27:33.627Z,14.50
2022-11-18T17:30:05.158Z,14.50
2022-11-18T17:32:33.141Z,14.50
2022-11-18T17:35:02.934Z,14.60
2022-11-18T17:37:31.550Z,14.50
2022-11-18T17:40:01.868Z,14.50
2022-11-18T17:42:30.331Z,14.50
2022-11-18T17:44:58.317Z,14.50
2022-11-18T17:47:27.054Z,14.60
2022-11-18T17:49:55.021Z,14.60
2022-11-18T17:52:25.912Z,14.60
2022-11-18T17:54:53.927Z,14.50
2022-11-18T17:57:22.907Z,14.50
2022-11-18T17:59:50.897Z,14.40
2022-11-18T18:02:21.399Z,14.40
2022-11-18T18:04:49.897Z,14.30
2022-11-18T18:07:18.268Z,14.30
2022-11-18T18:09:47.700Z,14.30
2022-11-18T18:12:33.702Z,14.30
2022-11-18T18:15:01.714Z,14.30
2022-11-18T18:17:32.812Z,14.30
2022-11-18T18:20:00.863Z,14.40
2022-11-18T18:22:29.341Z,14.30
2022-11-18T18:25:00.894Z,14.30
2022-11-18T18:27:31.794Z,14.10
2022-11-18T18:29:59.806Z,14.20
2022-11-18T18:32:29.893Z,14.20
2022-11-18T18:34:57.994Z,14.10
2022-11-18T18:37:27.064Z,14.10
2022-11-18T18:39:55.370Z,14.20
2022-11-18T18:42:26.525Z,13.80
2022-11-18T18:45:12.001Z,13.80
2022-11-18T18:47:40.442Z,13.80
2022-11-18T18:50:08.550Z,14.00
2022-11-18T18:52:37.095Z,13.90
2022-11-18T18:55:09.022Z,13.90
2022-11-18T18:57:38.468Z,13.90
2022-11-18T19:00:08.448Z,13.90
2022-11-18T19:02:36.642Z,13.80
2022-11-18T19:05:05.091Z,13.80
2022-11-18T19:07:35.917Z,13.70
2022-11-18T19:10:07.804Z,13.40
2022-11-18T19:12:43.839Z,13.50
2022-11-18T19:15:16.567Z,13.40
2022-11-18T19:17:52.154Z,13.50
2022-11-18T19:20:36.835Z,13.40
2022-11-18T19:23:10.410Z,13.40
2022-11-18T19:25:38.579Z,13.30
2022-11-18T19:28:10.234Z,13.40
2022-11-18T19:30:40.095Z,13.40
2022-11-18T19:33:08.122Z,13.40
2022-11-18T19:35:38.540Z,13.40
2022-11-18T19:38:06.529Z,13.50
2022-11-18T19:40:35.649Z,13.40
2022-11-18T19:43:03.980Z,13.30
2022-11-18T19:45:34.153Z,13.30
2022-11-18T19:48:04.083Z,13.30
2022-11-18T19:50:39.671Z,13.30
2022-11-18T19:53:28.107Z,13.20
2022-11-18T19:55:59.930Z,13.10
2022-11-18T19:58:28.159Z,12.90
2022-11-18T20:00:59.624Z,12.90
2022-11-18T20:03:30.684Z,12.90
2022-11-18T20:06:02.549Z,12.70
2022-11-18T20:08:33.589Z,12.80
2022-11-18T20:11:09.097Z,12.70
2022-11-18T20:13:38.553Z,12.70
2022-11-18T20:16:09.403Z,12.40
2022-11-18T20:18:39.199Z,12.40
2022-11-18T20:21:09.554Z,12.60
2022-11-18T20:23:38.560Z,12.60
2022-11-18T20:26:10.955Z,12.60
2022-11-18T20:28:41.675Z,12.70
2022-11-18T20:31:13.445Z,12.50
2022-11-18T20:33:51.612Z,12.70
2022-11-18T20:36:22.981Z,12.80
2022-11-18T20:38:52.481Z,12.80
2022-11-18T20:41:22.469Z,12.70
2022-11-18T20:43:50.926Z,12.60
2022-11-18T20:46:21.194Z,12.50
2022-11-18T20:48:51.586Z,12.50
2022-11-18T20:51:23.249Z,12.50
2022-11-18T20:53:53.106Z,12.60
2022-11-18T20:56:24.332Z,12.50
2022-11-18T20:58:53.862Z,12.60
2022-11-18T21:01:24.419Z,12.70
2022-11-18T21:03:56.230Z,12.60
2022-11-18T21:06:27.212Z,12.70
2022-11-18T21:08:57.670Z,12.20
2022-11-18T21:11:27.236Z,12.10
2022-11-18T21:14:13.710Z,11.80
2022-11-18T21:16:52.916Z,11.90
2022-11-18T21:19:22.560Z,11.70
2022-11-18T21:21:53.187Z,11.40
2022-11-18T21:24:25.534Z,11.30
2022-11-18T21:26:55.630Z,11.50
2022-11-18T21:29:24.754Z,11.40
2022-11-18T21:31:53.994Z,11.20
2022-11-18T21:34:24.198Z,10.90
2022-11-18T21:36:55.012Z,11.10
2022-11-18T21:39:25.273Z,11.30
2022-11-18T21:41:56.839Z,11.30
2022-11-18T21:44:27.600Z,11.40
2022-11-18T21:46:55.894Z,11.30
2022-11-18T21:49:27.705Z,11.50
2022-11-18T21:51:55.741Z,11.50
2022-11-18T21:54:23.700Z,11.70
2022-11-18T21:56:55.531Z,11.60
2022-11-18T21:59:24.052Z,11.60
2022-11-18T22:01:52.098Z,11.90
2022-11-18T22:04:34.244Z,11.80
2022-11-18T22:07:07.140Z,11.70
2022-11-18T22:09:37.107Z,11.90
2022-11-18T22:12:07.590Z,11.90
2022-11-18T22:14:36.607Z,11.90
2022-11-18T22:17:05.739Z,11.90
2022-11-18T22:19:33.847Z,11.60
2022-11-18T22:22:03.194Z,11.60
2022-11-18T22:24:32.440Z,11.60
2022-11-18T22:27:00.434Z,11.60
2022-11-18T22:29:28.729Z,11.70
2022-11-18T22:31:57.549Z,11.70
2022-11-18T22:34:26.358Z,11.60
2022-11-18T22:36:54.936Z,11.60
2022-11-18T22:39:25.291Z,11.50
2022-11-18T22:42:11.521Z,11.50
2022-11-18T22:44:41.951Z,11.60
2022-11-18T22:47:10.373Z,11.60
2022-11-18T22:49:38.758Z,11.50
2022-11-18T22:52:09.238Z,11.60
2022-11-18T22:54:40.273Z,11.70
2022-11-18T22:57:08.972Z,11.70
2022-11-18T22:59:40.445Z,11.70
2022-11-18T23:02:08.505Z,11.70
2022-11-18T23:04:36.646Z,11.70
2022-11-18T23:07:05.148Z,11.40
2022-11-18T23:09:33.223Z,11.60
2022-11-18T23:12:20.761Z,11.40
2022-11-18T23:14:51.105Z,11.40
2022-11-18T23:17:22.106Z,11.30
2022-11-18T23:19:50.160Z,11.40
2022-11-18T23:22:18.170Z,11.40
2022-11-18T23:24:46.999Z,11.30
2022-11-18T23:27:18.590Z,11.30
2022-11-18T23:29:49.595Z,11.20
2022-11-18T23:32:17.782Z,11.00
2022-11-18T23:34:47.885Z,11.00
2022-11-18T23:37:19.871Z,11.10
2022-11-18T23:39:50.310Z,11.00
2022-11-18T23:42:25.563Z,11.10
2022-11-18T23:44:55.003Z,10.90
2022-11-18T23:47:23.806Z,11.20
2022-11-18T23:49:51.774Z,11.10
2022-11-18T23:52:20.177Z,11.10
2022-11-18T23:54:52.366Z,10.80
2022-11-18T23:57:25.604Z,10.70
2022-11-18T23:59:54.852Z,10.70
